createdAt,value
2019-03-15T00:10:59.882Z,2.89
2019-03-15T00:13:29.113Z,2.96
2019-03-15T00:15:58.157Z,2.95
2019-03-15T00:18:27.268Z,2.86
2019-03-15T00:20:56.407Z,2.88
2019-03-15T00:23:25.442Z,2.95
2019-03-15T00:25:55.546Z,2.96
2019-03-15T00:28:23.584Z,2.84
2019-03-15T00:30:52.749Z,2.82
2019-03-15T00:33:21.877Z,2.73
2019-03-15T00:35:50.980Z,2.69
2019-03-15T00:38:20.052Z,2.71
2019-03-15T00:40:49.133Z,2.61
2019-03-15T00:43:18.308Z,2.53
2019-03-15T00:45:47.370Z,2.66
2019-03-15T00:48:16.478Z,2.61
2019-03-15T00:50:45.552Z,2.65
2019-03-15T00:53:14.507Z,2.64
2019-03-15T00:55:43.549Z,2.63
2019-03-15T00:58:12.772Z,2.74
2019-03-15T01:00:41.890Z,2.75
2019-03-15T01:03:11.048Z,2.62
2019-03-15T01:05:40.104Z,2.56
2019-03-15T01:08:09.216Z,2.51
2019-03-15T01:10:38.419Z,2.54
2019-03-15T01:13:07.537Z,2.60
2019-03-15T01:15:36.770Z,2.70
2019-03-15T01:18:06.211Z,2.68
2019-03-15T01:20:35.268Z,2.61
2019-03-15T01:23:04.376Z,2.62
2019-03-15T01:25:33.388Z,2.57
2019-03-15T01:28:02.568Z,2.60
2019-03-15T01:30:31.524Z,2.54
2019-03-15T01:33:01.202Z,2.58
2019-03-15T01:35:33.417Z,2.56
2019-03-15T01:37:59.369Z,2.57
2019-03-15T01:40:28.496Z,2.58
2019-03-15T01:42:57.580Z,2.49
2019-03-15T01:45:26.549Z,2.56
2019-03-15T01:47:55.573Z,2.64
2019-03-15T01:50:24.828Z,2.61
2019-03-15T01:52:53.850Z,2.56
2019-03-15T01:55:23.003Z,2.54
2019-03-15T01:57:52.048Z,2.47
2019-03-15T02:00:21.138Z,2.45
2019-03-15T02:02:50.246Z,2.45
2019-03-15T02:05:19.312Z,2.30
2019-03-15T02:07:48.364Z,2.34
2019-03-15T02:10:17.521Z,2.20
2019-03-15T02:12:47.478Z,2.19
2019-03-15T02:15:15.614Z,2.10
2019-03-15T02:17:44.722Z,2.12
2019-03-15T02:20:13.997Z,2.05
2019-03-15T02:22:42.979Z,2.04
2019-03-15T02:25:12.217Z,2.01
2019-03-15T02:27:41.284Z,2.06
2019-03-15T02:30:10.821Z,2.06
2019-03-15T02:32:40.229Z,1.96
2019-03-15T02:35:08.985Z,1.85
2019-03-15T02:37:38.002Z,1.81
2019-03-15T02:40:07.268Z,1.73
2019-03-15T02:42:36.372Z,1.69
2019-03-15T02:45:06.316Z,1.67
2019-03-15T02:47:34.828Z,1.81
2019-03-15T02:50:03.919Z,1.66
2019-03-15T02:52:32.949Z,1.54
2019-03-15T02:55:02.198Z,1.47
2019-03-15T02:57:31.260Z,1.46
2019-03-15T03:00:00.373Z,1.40
2019-03-15T03:02:29.707Z,1.49
2019-03-15T03:04:58.959Z,1.47
2019-03-15T03:07:28.063Z,1.51
2019-03-15T03:09:57.237Z,1.41
2019-03-15T03:12:26.249Z,1.39
2019-03-15T03:14:55.391Z,1.39
2019-03-15T03:17:24.542Z,1.42
2019-03-15T03:19:54.137Z,1.47
2019-03-15T03:22:22.615Z,1.40
2019-03-15T03:24:51.793Z,1.31
2019-03-15T03:27:20.817Z,1.16
2019-03-15T03:29:49.916Z,1.03
2019-03-15T03:32:19.025Z,1.17
2019-03-15T03:34:48.097Z,1.15
2019-03-15T03:37:17.226Z,1.11
2019-03-15T03:39:46.940Z,1.10
2019-03-15T03:42:16.021Z,1.10
2019-03-15T03:44:45.213Z,1.02
2019-03-15T03:47:14.228Z,1.03
2019-03-15T03:49:43.236Z,1.01
2019-03-15T03:52:12.292Z,0.92
2019-03-15T03:54:41.432Z,0.90
2019-03-15T03:57:10.721Z,0.93
2019-03-15T03:59:39.918Z,0.96
2019-03-15T04:02:09.279Z,0.80
2019-03-15T04:04:38.647Z,0.82
2019-03-15T04:07:07.808Z,0.81
2019-03-15T04:09:37.020Z,0.73
2019-03-15T04:12:06.218Z,0.64
2019-03-15T04:14:35.285Z,0.68
2019-03-15T04:17:04.409Z,0.67
2019-03-15T04:19:33.568Z,0.66
2019-03-15T04:22:02.689Z,0.67
2019-03-15T04:24:31.924Z,0.64
2019-03-15T04:27:00.866Z,0.59
2019-03-15T04:29:29.971Z,0.61
2019-03-15T04:31:59.832Z,0.53
2019-03-15T04:34:28.884Z,0.55
2019-03-15T04:36:57.963Z,0.26
2019-03-15T04:39:27.095Z,0.41
2019-03-15T04:41:56.264Z,0.45
2019-03-15T04:44:25.359Z,0.41
2019-03-15T04:46:54.752Z,0.41
2019-03-15T04:49:23.869Z,0.40
2019-03-15T04:51:52.851Z,0.36
2019-03-15T04:54:21.935Z,0.37
2019-03-15T04:56:50.956Z,0.43
2019-03-15T04:59:20.112Z,0.47
2019-03-15T05:01:49.281Z,0.38
2019-03-15T05:04:18.449Z,0.33
2019-03-15T05:06:47.983Z,0.37
2019-03-15T05:09:17.202Z,0.36
2019-03-15T05:11:46.241Z,0.37
2019-03-15T05:14:15.332Z,0.31
2019-03-15T05:16:44.502Z,0.37
2019-03-15T05:19:13.535Z,0.37
2019-03-15T05:21:42.518Z,0.50
2019-03-15T05:24:11.596Z,0.53
2019-03-15T05:26:40.664Z,0.54
2019-03-15T05:29:10.532Z,0.61
2019-03-15T05:31:40.485Z,0.82
2019-03-15T05:34:09.540Z,0.84
2019-03-15T05:36:38.686Z,0.96
2019-03-15T05:39:08.083Z,0.95
2019-03-15T05:41:37.128Z,0.81
2019-03-15T05:44:06.166Z,0.95
2019-03-15T05:46:35.616Z,1.01
2019-03-15T05:49:04.843Z,0.98
2019-03-15T05:51:34.297Z,1.04
2019-03-15T05:54:03.520Z,1.13
2019-03-15T05:56:32.777Z,1.19
2019-03-15T05:59:01.832Z,1.30
2019-03-15T06:01:31.028Z,1.37
2019-03-15T06:03:59.876Z,1.34
2019-03-15T06:06:29.117Z,1.29
2019-03-15T06:08:58.237Z,1.43
2019-03-15T06:11:27.212Z,1.59
2019-03-15T06:13:56.327Z,1.62
2019-03-15T06:16:25.462Z,1.73
2019-03-15T06:18:54.609Z,1.89
2019-03-15T06:21:23.702Z,1.83
2019-03-15T06:23:52.834Z,2.05
2019-03-15T06:26:22.074Z,2.01
2019-03-15T06:28:51.178Z,2.12
2019-03-15T06:31:20.478Z,2.02
2019-03-15T06:33:49.707Z,2.05
2019-03-15T06:36:19.074Z,2.19
2019-03-15T06:38:49.033Z,2.49
2019-03-15T06:41:18.486Z,2.51
2019-03-15T06:43:47.698Z,2.53
2019-03-15T06:46:16.847Z,2.75
2019-03-15T06:48:46.173Z,2.73
2019-03-15T06:51:17.047Z,2.78
2019-03-15T06:53:47.876Z,2.98
2019-03-15T06:56:15.248Z,2.97
2019-03-15T06:58:44.448Z,2.80
2019-03-15T07:01:13.801Z,2.86
2019-03-15T07:03:42.919Z,2.89
2019-03-15T07:06:11.994Z,3.02
2019-03-15T07:08:41.234Z,3.00
2019-03-15T07:11:10.362Z,3.04
2019-03-15T07:13:39.710Z,3.02
2019-03-15T07:16:08.932Z,3.16
2019-03-15T07:18:38.516Z,3.31
2019-03-15T07:21:07.718Z,3.46
2019-03-15T07:23:36.957Z,3.59
2019-03-15T07:26:06.653Z,3.78
2019-03-15T07:28:35.754Z,3.87
2019-03-15T07:31:04.885Z,4.06
2019-03-15T07:33:33.972Z,4.16
2019-03-15T07:36:03.578Z,4.03
2019-03-15T07:38:33.925Z,4.03
2019-03-15T07:41:03.409Z,4.00
2019-03-15T07:43:32.579Z,4.26
2019-03-15T07:46:01.782Z,4.35
2019-03-15T07:48:31.509Z,4.18
2019-03-15T07:51:00.736Z,4.21
2019-03-15T07:53:30.230Z,4.41
2019-03-15T07:55:59.742Z,4.36
2019-03-15T07:58:29.016Z,4.41
2019-03-15T08:00:58.048Z,4.40
2019-03-15T08:03:27.670Z,4.38
2019-03-15T08:05:56.704Z,4.25
2019-03-15T08:08:26.152Z,4.14
2019-03-15T08:10:55.457Z,4.39
2019-03-15T08:13:24.625Z,4.42
2019-03-15T08:15:54.792Z,4.57
2019-03-15T08:18:23.828Z,4.42
2019-03-15T08:20:52.915Z,4.40
2019-03-15T08:23:22.494Z,4.58
2019-03-15T08:25:51.658Z,4.46
2019-03-15T08:28:20.771Z,4.95
2019-03-15T08:30:50.173Z,5.26
2019-03-15T08:33:19.259Z,5.51
2019-03-15T08:35:48.609Z,5.69
2019-03-15T08:38:17.609Z,5.90
2019-03-15T08:40:46.729Z,5.93
2019-03-15T08:43:16.283Z,5.96
2019-03-15T08:45:46.332Z,6.18
2019-03-15T08:48:15.547Z,6.68
2019-03-15T08:50:44.631Z,6.64
2019-03-15T08:53:14.135Z,6.84
2019-03-15T08:55:43.734Z,7.10
2019-03-15T08:58:14.573Z,6.81
2019-03-15T09:00:42.073Z,6.71
2019-03-15T09:03:12.190Z,6.86
2019-03-15T09:05:41.270Z,7.11
2019-03-15T09:08:10.534Z,7.23
2019-03-15T09:10:39.777Z,7.27
2019-03-15T09:13:09.080Z,7.33
2019-03-15T09:15:38.763Z,7.07
2019-03-15T09:18:08.026Z,7.33
2019-03-15T09:20:37.127Z,7.52
2019-03-15T09:23:06.361Z,7.59
2019-03-15T09:25:35.466Z,7.75
2019-03-15T09:28:04.838Z,7.55
2019-03-15T09:30:34.056Z,8.04
2019-03-15T09:33:03.471Z,8.47
2019-03-15T09:35:32.579Z,8.46
2019-03-15T09:38:01.695Z,8.51
2019-03-15T09:40:32.645Z,8.48
2019-03-15T09:43:01.691Z,8.24
2019-03-15T09:45:30.902Z,7.90
2019-03-15T09:48:00.190Z,7.97
2019-03-15T09:50:40.103Z,7.99
2019-03-15T09:52:59.046Z,8.49
2019-03-15T09:55:33.191Z,8.67
2019-03-15T09:57:57.305Z,8.98
2019-03-15T10:00:26.547Z,9.28
2019-03-15T10:02:56.100Z,9.55
2019-03-15T10:05:24.811Z,9.32
2019-03-15T10:07:53.975Z,8.66
2019-03-15T10:10:23.240Z,8.39
2019-03-15T10:13:05.387Z,8.65
2019-03-15T10:15:22.027Z,9.16
2019-03-15T10:17:51.331Z,9.77
2019-03-15T10:20:21.223Z,10.19
2019-03-15T10:23:04.869Z,10.00
2019-03-15T10:25:19.550Z,10.18
2019-03-15T10:27:49.057Z,10.33
2019-03-15T10:30:18.813Z,9.84
2019-03-15T10:32:48.189Z,9.08
2019-03-15T10:35:17.246Z,9.53
2019-03-15T10:37:46.394Z,9.80
2019-03-15T10:40:16.460Z,10.35
2019-03-15T10:42:45.547Z,10.59
2019-03-15T10:45:14.787Z,10.77
2019-03-15T10:47:44.262Z,10.29
2019-03-15T10:50:13.605Z,10.04
2019-03-15T10:52:42.881Z,9.90
2019-03-15T10:55:12.085Z,9.50
2019-03-15T10:57:41.272Z,9.21
2019-03-15T11:00:12.277Z,9.44
2019-03-15T11:02:41.514Z,9.58
2019-03-15T11:05:10.854Z,9.41
2019-03-15T11:07:40.018Z,9.71
2019-03-15T11:10:09.379Z,9.62
2019-03-15T11:12:38.526Z,9.72
2019-03-15T11:15:08.572Z,9.90
2019-03-15T11:17:37.902Z,9.80
2019-03-15T11:20:07.306Z,10.08
2019-03-15T11:22:36.393Z,10.59
2019-03-15T11:25:05.797Z,10.93
2019-03-15T11:27:34.947Z,10.64
2019-03-15T11:30:04.125Z,10.55
2019-03-15T11:32:33.394Z,10.68
2019-03-15T11:35:02.569Z,10.92
2019-03-15T11:37:31.581Z,11.00
2019-03-15T11:40:00.864Z,11.00
2019-03-15T11:42:29.988Z,10.44
2019-03-15T11:44:59.194Z,10.78
2019-03-15T11:47:28.350Z,11.75
2019-03-15T11:49:57.484Z,12.01
2019-03-15T11:52:27.376Z,11.71
2019-03-15T11:54:56.530Z,12.01
2019-03-15T11:57:25.700Z,12.06
2019-03-15T11:59:54.778Z,12.61
2019-03-15T12:02:23.943Z,12.83
2019-03-15T12:04:53.101Z,12.46
2019-03-15T12:07:25.186Z,12.48
2019-03-15T12:09:54.340Z,12.26
2019-03-15T12:12:23.470Z,11.78
2019-03-15T12:14:52.551Z,12.22
2019-03-15T12:17:21.793Z,12.15
2019-03-15T12:19:50.905Z,12.44
2019-03-15T12:22:20.052Z,12.28
2019-03-15T12:24:49.469Z,12.89
2019-03-15T12:27:18.632Z,12.64
2019-03-15T12:29:47.828Z,12.29
2019-03-15T12:32:17.077Z,12.06
2019-03-15T12:34:46.189Z,12.42
2019-03-15T12:37:15.377Z,12.52
2019-03-15T12:39:44.669Z,12.50
2019-03-15T12:42:14.195Z,12.03
2019-03-15T12:44:43.278Z,12.77
2019-03-15T12:47:12.318Z,13.66
2019-03-15T12:49:41.453Z,13.47
2019-03-15T12:52:10.855Z,13.00
2019-03-15T12:54:40.510Z,12.04
2019-03-15T12:57:09.643Z,11.55
2019-03-15T12:59:38.763Z,11.47
2019-03-15T13:02:08.933Z,11.69
2019-03-15T13:04:39.105Z,12.77
2019-03-15T13:07:08.405Z,13.54
2019-03-15T13:09:38.953Z,13.73
2019-03-15T13:12:08.647Z,13.21
2019-03-15T13:14:37.779Z,12.65
2019-03-15T13:17:07.556Z,12.43
2019-03-15T13:19:36.671Z,12.14
2019-03-15T13:22:06.809Z,11.72
2019-03-15T13:24:35.638Z,11.43
2019-03-15T13:27:07.653Z,11.50
2019-03-15T13:29:34.477Z,11.15
2019-03-15T13:32:03.682Z,11.03
2019-03-15T13:34:32.756Z,11.00
2019-03-15T13:37:02.484Z,11.01
2019-03-15T13:39:32.045Z,10.78
2019-03-15T13:42:01.173Z,10.84
2019-03-15T13:44:30.418Z,10.91
2019-03-15T13:46:59.474Z,10.63
2019-03-15T13:49:28.590Z,10.41
2019-03-15T13:51:57.658Z,10.54
2019-03-15T13:54:27.177Z,10.66
2019-03-15T13:56:56.245Z,10.76
2019-03-15T13:59:26.024Z,10.95
2019-03-15T14:01:55.252Z,10.82
2019-03-15T14:04:24.438Z,10.77
2019-03-15T14:06:54.235Z,10.54
2019-03-15T14:09:23.305Z,10.30
2019-03-15T14:11:52.468Z,10.32
2019-03-15T14:14:22.104Z,10.22
2019-03-15T14:16:51.169Z,10.35
2019-03-15T14:19:20.130Z,10.13
2019-03-15T14:21:49.393Z,9.95
2019-03-15T14:24:19.140Z,9.93
2019-03-15T14:26:50.816Z,9.93
2019-03-15T14:29:17.409Z,9.88
2019-03-15T14:31:46.487Z,9.93
2019-03-15T14:34:15.637Z,9.86
2019-03-15T14:36:45.101Z,9.77
2019-03-15T14:39:14.294Z,9.65
2019-03-15T14:41:43.393Z,9.78
2019-03-15T14:44:12.747Z,9.79
2019-03-15T14:46:42.663Z,9.68
2019-03-15T14:49:11.877Z,9.64
2019-03-15T14:51:41.036Z,9.64
2019-03-15T14:54:10.229Z,9.65
2019-03-15T14:56:39.372Z,9.49
2019-03-15T14:59:09.069Z,9.36
2019-03-15T15:01:38.803Z,9.32
2019-03-15T15:04:08.518Z,9.32
2019-03-15T15:06:37.677Z,9.25
2019-03-15T15:09:07.772Z,9.27
2019-03-15T15:11:37.016Z,9.17
2019-03-15T15:14:06.326Z,9.12
2019-03-15T15:16:35.407Z,9.14
2019-03-15T15:19:04.975Z,9.21
2019-03-15T15:21:34.310Z,9.15
2019-03-15T15:24:03.407Z,9.30
2019-03-15T15:26:32.449Z,9.65
2019-03-15T15:29:01.424Z,10.08
2019-03-15T15:31:30.424Z,10.19
2019-03-15T15:33:59.253Z,10.00
2019-03-15T15:36:28.501Z,9.66
2019-03-15T15:38:57.514Z,9.54
2019-03-15T15:41:26.375Z,9.50
2019-03-15T15:43:55.604Z,9.37
2019-03-15T15:46:24.898Z,9.38
2019-03-15T15:48:53.877Z,9.44
2019-03-15T15:51:22.937Z,9.60
2019-03-15T15:53:52.090Z,9.79
2019-03-15T15:56:21.245Z,9.80
2019-03-15T15:58:51.205Z,9.73
2019-03-15T16:01:20.253Z,9.69
2019-03-15T16:03:49.247Z,9.63
2019-03-15T16:06:18.551Z,9.50
2019-03-15T16:08:47.688Z,9.23
2019-03-15T16:11:16.777Z,9.39
2019-03-15T16:13:45.799Z,9.03
2019-03-15T16:16:15.480Z,8.94
2019-03-15T16:18:44.491Z,8.89
2019-03-15T16:21:14.371Z,8.84
2019-03-15T16:23:43.875Z,8.67
2019-03-15T16:26:13.185Z,8.54
2019-03-15T16:28:42.901Z,8.58
2019-03-15T16:31:12.694Z,8.45
2019-03-15T16:33:42.578Z,8.47
2019-03-15T16:36:11.705Z,8.43
2019-03-15T16:38:42.836Z,8.43
2019-03-15T16:41:13.116Z,8.51
2019-03-15T16:43:42.269Z,8.42
2019-03-15T16:46:11.424Z,8.31
2019-03-15T16:48:40.583Z,8.32
2019-03-15T16:51:19.427Z,8.27
2019-03-15T16:53:39.953Z,8.18
2019-03-15T16:56:08.991Z,8.11
2019-03-15T16:58:45.258Z,8.09
2019-03-15T17:01:07.622Z,7.99
2019-03-15T17:03:37.966Z,7.94
2019-03-15T17:06:07.384Z,7.98
2019-03-15T17:08:36.546Z,7.84
2019-03-15T17:11:05.709Z,7.83
2019-03-15T17:13:35.069Z,7.79
2019-03-15T17:16:04.905Z,7.66
2019-03-15T17:18:34.805Z,7.65
2019-03-15T17:21:03.991Z,7.52
2019-03-15T17:23:33.054Z,7.52
2019-03-15T17:26:02.375Z,7.41
2019-03-15T17:28:31.566Z,7.33
2019-03-15T17:31:09.574Z,7.33
2019-03-15T17:33:29.798Z,7.18
2019-03-15T17:35:59.031Z,7.20
2019-03-15T17:38:28.825Z,7.04
2019-03-15T17:40:57.979Z,7.02
2019-03-15T17:43:28.074Z,7.01
2019-03-15T17:45:57.070Z,6.99
2019-03-15T17:48:26.381Z,7.06
2019-03-15T17:50:55.465Z,7.09
2019-03-15T17:53:25.158Z,6.94
2019-03-15T17:55:54.173Z,6.90
2019-03-15T17:58:25.859Z,6.90
2019-03-15T18:00:52.650Z,6.92
2019-03-15T18:03:22.173Z,6.95
2019-03-15T18:05:51.286Z,6.93
2019-03-15T18:08:20.499Z,6.92
2019-03-15T18:10:50.037Z,6.92
2019-03-15T18:13:19.258Z,6.83
2019-03-15T18:15:49.598Z,6.74
2019-03-15T18:18:19.115Z,6.67
2019-03-15T18:20:48.493Z,6.67
2019-03-15T18:23:17.849Z,6.77
2019-03-15T18:25:47.767Z,6.84
2019-03-15T18:28:16.949Z,6.72
2019-03-15T18:30:46.011Z,6.69
2019-03-15T18:33:15.177Z,6.61
2019-03-15T18:35:44.292Z,6.65
2019-03-15T18:38:13.298Z,6.63
2019-03-15T18:40:42.716Z,6.47
2019-03-15T18:43:11.793Z,6.42
2019-03-15T18:45:40.781Z,6.48
2019-03-15T18:48:09.832Z,6.46
2019-03-15T18:50:38.781Z,6.44
2019-03-15T18:53:07.913Z,6.44
2019-03-15T18:55:37.023Z,6.44
2019-03-15T18:58:06.354Z,6.40
2019-03-15T19:00:35.691Z,6.35
2019-03-15T19:03:05.009Z,6.36
2019-03-15T19:05:34.457Z,6.37
2019-03-15T19:08:03.277Z,6.33
2019-03-15T19:10:32.465Z,6.34
2019-03-15T19:13:01.460Z,6.34
2019-03-15T19:15:30.568Z,6.29
2019-03-15T19:17:59.681Z,6.29
2019-03-15T19:20:28.977Z,6.27
2019-03-15T19:22:58.076Z,6.43
2019-03-15T19:25:27.404Z,6.59
2019-03-15T19:27:56.445Z,6.47
2019-03-15T19:30:25.554Z,6.41
2019-03-15T19:32:55.284Z,6.32
2019-03-15T19:35:24.432Z,6.35
2019-03-15T19:37:53.564Z,6.24
2019-03-15T19:40:22.728Z,6.22
2019-03-15T19:42:51.741Z,6.19
2019-03-15T19:45:20.770Z,6.15
2019-03-15T19:47:49.891Z,6.22
2019-03-15T19:50:19.163Z,6.24
2019-03-15T19:52:48.297Z,6.16
2019-03-15T19:55:17.447Z,6.10
2019-03-15T19:57:46.602Z,6.12
2019-03-15T20:00:16.776Z,6.03
2019-03-15T20:02:46.479Z,6.02
2019-03-15T20:05:15.539Z,6.01
2019-03-15T20:07:44.682Z,6.05
2019-03-15T20:10:16.492Z,6.09
2019-03-15T20:12:43.057Z,6.20
2019-03-15T20:15:12.370Z,5.99
2019-03-15T20:17:41.457Z,6.14
2019-03-15T20:20:11.179Z,6.14
2019-03-15T20:22:40.466Z,6.16
2019-03-15T20:25:11.172Z,6.16
2019-03-15T20:27:40.287Z,6.16
2019-03-15T20:30:21.018Z,6.04
2019-03-15T20:32:42.148Z,6.07
2019-03-15T20:35:11.282Z,6.11
2019-03-15T20:37:41.309Z,6.10
2019-03-15T20:40:10.657Z,6.03
2019-03-15T20:42:39.826Z,6.08
2019-03-15T20:45:10.672Z,6.07
2019-03-15T20:47:39.708Z,6.09
2019-03-15T20:50:09.781Z,6.04
2019-03-15T20:52:39.051Z,6.13
2019-03-15T20:55:08.396Z,6.14
2019-03-15T20:57:37.463Z,6.15
2019-03-15T21:00:07.023Z,6.12
2019-03-15T21:02:36.699Z,6.15
2019-03-15T21:05:08.007Z,6.09
2019-03-15T21:07:35.299Z,6.09
2019-03-15T21:10:04.400Z,6.16
2019-03-15T21:12:33.217Z,6.08
2019-03-15T21:15:05.729Z,6.06
2019-03-15T21:17:31.624Z,6.09
2019-03-15T21:20:00.690Z,6.08
2019-03-15T21:22:29.752Z,6.08
2019-03-15T21:24:58.883Z,6.01
2019-03-15T21:27:30.757Z,6.00
2019-03-15T21:29:59.817Z,5.98
2019-03-15T21:32:28.869Z,5.92
2019-03-15T21:34:57.976Z,5.97
2019-03-15T21:37:29.693Z,5.88
2019-03-15T21:39:56.201Z,5.83
2019-03-15T21:42:25.257Z,5.81
2019-03-15T21:44:54.437Z,5.76
2019-03-15T21:47:24.187Z,5.68
2019-03-15T21:49:53.267Z,5.47
2019-03-15T21:52:22.984Z,5.18
2019-03-15T21:54:52.071Z,5.07
2019-03-15T21:57:21.170Z,5.06
2019-03-15T21:59:50.136Z,4.86
2019-03-15T22:02:19.140Z,4.65
2019-03-15T22:04:48.152Z,4.64
2019-03-15T22:07:17.281Z,4.54
2019-03-15T22:09:46.331Z,4.42
2019-03-15T22:12:15.310Z,4.33
2019-03-15T22:14:44.552Z,4.22
2019-03-15T22:17:13.561Z,4.18
2019-03-15T22:19:42.630Z,4.11
2019-03-15T22:22:11.753Z,3.98
2019-03-15T22:24:41.020Z,3.98
2019-03-15T22:27:10.774Z,3.88
2019-03-15T22:29:48.608Z,3.82
2019-03-15T22:32:09.258Z,3.80
2019-03-15T22:34:38.330Z,3.83
2019-03-15T22:37:07.593Z,3.80
2019-03-15T22:39:36.617Z,3.82
2019-03-15T22:42:05.779Z,3.85
2019-03-15T22:44:34.840Z,3.78
2019-03-15T22:47:04.577Z,3.71
2019-03-15T22:49:33.730Z,3.63
2019-03-15T22:52:02.785Z,3.57
2019-03-15T22:54:31.841Z,3.59
2019-03-15T22:57:01.569Z,3.64
2019-03-15T22:59:30.902Z,3.38
2019-03-15T23:02:00.115Z,3.36
2019-03-15T23:04:29.229Z,3.34
2019-03-15T23:06:58.450Z,3.34
2019-03-15T23:09:27.526Z,3.21
2019-03-15T23:11:56.824Z,3.34
2019-03-15T23:14:26.190Z,3.23
2019-03-15T23:16:56.192Z,3.26
2019-03-15T23:19:25.343Z,3.18
2019-03-15T23:21:54.421Z,3.13
2019-03-15T23:24:23.530Z,3.11
2019-03-15T23:26:52.549Z,2.97
2019-03-15T23:29:21.724Z,3.08
2019-03-15T23:31:50.828Z,3.03
2019-03-15T23:34:19.954Z,3.10
2019-03-15T23:36:48.944Z,3.16
2019-03-15T23:39:17.801Z,2.91
2019-03-15T23:41:46.945Z,2.88
2019-03-15T23:44:15.993Z,2.76
2019-03-15T23:46:45.192Z,2.88
2019-03-15T23:49:14.154Z,2.93
2019-03-15T23:51:43.192Z,2.91
2019-03-15T23:54:12.323Z,2.84
2019-03-15T23:56:41.497Z,2.63
2019-03-15T23:59:10.666Z,2.45
